logo
Rechercher aéroport 
image banner adimage banner adimage banner ad
image banner ad

CL70 - Queen Of Angel-Hollywood Presbyterian Hos

Situé à Los Angeles, United States

ICAO - CL70, IATA -

Données fournies par Airmate  

Information générale

Coordonnées: N34°5'47" W118°17'25"
Élévation : 524 feet MSL.
Variation magnétique : 14° East
Voir autres Aéroports à California

Données opérationnelles

Special qualification required
Heure actuelle UTC:
Heure actuelle locale:
Météo à : KBUR - Bob Hope ( 13 km )
METAR: KBUR 222353Z 16008KT 10SM CLR 31/05 A2986 RMK AO2 SLP098 T03110050 10328 20272 56014
TAF: KBUR 112346Z 1200/1224 17009KT P6SM VCSH SCT030 BKN060 FM120300 VRB03KT P6SM BKN100 FM121000 00000KT P6SM BKN100
Voir NOTAMs / SUP AIP / TFR affectant cet aéroport [VIEW]
Fréquences de communication: [VIEW]

Pistes:

Coordonnées de l'aéroport

Adresse: Los Angeles United States

Vue satellite de CL70